Terminal Aerodrome Forecast
Issued by NWS

Home | Current Version | Previous Version | Text Only | Print | Product List | Glossary On
Versions: 1 2 3 4 5 6 7 8 9 10 11 12
000
FTAK31 PAFA 191120
TAFATA
TAF
PATA 191120Z 1912/2012 06004KT P6SM SCT100
     FM192000 10010KT P6SM SKC=

USA.gov is the U.S. government's official web portal to all federal, state and local government web resources and services.